sensor_id;sensor_type;location;lat;lon;timestamp;P1;durP1;ratioP1;P2;durP2;ratioP2
74160;SDS011;62512;-46.434;168.382;2022-08-21T00:00:51;1.7;;;0.7;;
74160;SDS011;62512;-46.434;168.382;2022-08-21T00:01:51;2.4;;;0.8;;
74160;SDS011;62512;-46.434;168.382;2022-08-21T00:02:56;3.1;;;0.9;;
74160;SDS011;62512;-46.434;168.382;2022-08-21T00:04:50;1.0;;;0.9;;
74160;SDS011;62512;-46.434;168.382;2022-08-21T00:05:51;0.8;;;0.5;;
74160;SDS011;62512;-46.434;168.382;2022-08-21T00:06:51;1.1;;;0.5;;
74160;SDS011;62512;-46.434;168.382;2022-08-21T00:07:51;2.1;;;0.6;;
74160;SDS011;62512;-46.434;168.382;2022-08-21T00:08:51;1.6;;;0.4;;
74160;SDS011;62512;-46.434;168.382;2022-08-21T00:09:51;2.8;;;1.5;;
74160;SDS011;62512;-46.434;168.382;2022-08-21T00:10:51;5.3;;;1.3;;
74160;SDS011;62512;-46.434;168.382;2022-08-21T00:11:51;2.5;;;1.0;;
74160;SDS011;62512;-46.434;168.382;2022-08-21T00:12:51;2.0;;;0.9;;
74160;SDS011;62512;-46.434;168.382;2022-08-21T00:13:51;1.2;;;0.6;;
74160;SDS011;62512;-46.434;168.382;2022-08-21T00:14:51;2.1;;;0.9;;
74160;SDS011;62512;-46.434;168.382;2022-08-21T00:15:51;4.4;;;2.2;;
74160;SDS011;62512;-46.434;168.382;2022-08-21T00:16:51;4.1;;;2.2;;
74160;SDS011;62512;-46.434;168.382;2022-08-21T00:17:51;4.1;;;2.8;;
74160;SDS011;62512;-46.434;168.382;2022-08-21T00:18:51;4.9;;;3.0;;
74160;SDS011;62512;-46.434;168.382;2022-08-21T00:19:51;4.6;;;2.4;;
74160;SDS011;62512;-46.434;168.382;2022-08-21T00:20:51;3.9;;;1.8;;
74160;SDS011;62512;-46.434;168.382;2022-08-21T00:21:52;3.9;;;1.6;;
74160;SDS011;62512;-46.434;168.382;2022-08-21T00:23:51;3.4;;;1.7;;
74160;SDS011;62512;-46.434;168.382;2022-08-21T00:24:51;4.2;;;1.3;;
74160;SDS011;62512;-46.434;168.382;2022-08-21T00:25:51;2.3;;;1.4;;
74160;SDS011;62512;-46.434;168.382;2022-08-21T00:26:51;2.1;;;1.4;;
74160;SDS011;62512;-46.434;168.382;2022-08-21T00:27:51;2.1;;;1.3;;
74160;SDS011;62512;-46.434;168.382;2022-08-21T00:28:50;1.3;;;1.1;;
74160;SDS011;62512;-46.434;168.382;2022-08-21T00:29:51;2.0;;;0.6;;
74160;SDS011;62512;-46.434;168.382;2022-08-21T00:32:52;4.0;;;1.6;;
74160;SDS011;62512;-46.434;168.382;2022-08-21T00:33:51;2.9;;;1.6;;
74160;SDS011;62512;-46.434;168.382;2022-08-21T00:34:51;1.6;;;1.0;;
74160;SDS011;62512;-46.434;168.382;2022-08-21T00:35:51;2.1;;;1.0;;
74160;SDS011;62512;-46.434;168.382;2022-08-21T00:36:50;2.2;;;0.8;;
74160;SDS011;62512;-46.434;168.382;2022-08-21T00:37:51;2.2;;;0.5;;
74160;SDS011;62512;-46.434;168.382;2022-08-21T00:38:51;1.5;;;0.5;;
74160;SDS011;62512;-46.434;168.382;2022-08-21T00:39:51;1.8;;;0.5;;
74160;SDS011;62512;-46.434;168.382;2022-08-21T00:40:59;2.4;;;0.3;;
74160;SDS011;62512;-46.434;168.382;2022-08-21T00:41:51;0.9;;;0.4;;
74160;SDS011;62512;-46.434;168.382;2022-08-21T00:42:51;1.8;;;0.5;;
74160;SDS011;62512;-46.434;168.382;2022-08-21T00:43:51;2.3;;;0.4;;
74160;SDS011;62512;-46.434;168.382;2022-08-21T00:44:51;2.1;;;0.9;;
74160;SDS011;62512;-46.434;168.382;2022-08-21T00:45:51;2.4;;;0.6;;
74160;SDS011;62512;-46.434;168.382;2022-08-21T00:46:50;0.9;;;0.6;;
74160;SDS011;62512;-46.434;168.382;2022-08-21T00:47:51;1.8;;;0.4;;
74160;SDS011;62512;-46.434;168.382;2022-08-21T00:48:51;1.6;;;0.4;;
74160;SDS011;62512;-46.434;168.382;2022-08-21T00:49:50;1.2;;;0.3;;
74160;SDS011;62512;-46.434;168.382;2022-08-21T00:50:58;0.6;;;0.4;;
74160;SDS011;62512;-46.434;168.382;2022-08-21T00:51:56;1.4;;;0.5;;
74160;SDS011;62512;-46.434;168.382;2022-08-21T00:53:54;2.4;;;1.2;;
74160;SDS011;62512;-46.434;168.382;2022-08-21T00:54:51;2.0;;;1.0;;
74160;SDS011;62512;-46.434;168.382;2022-08-21T00:55:51;1.0;;;0.4;;
74160;SDS011;62512;-46.434;168.382;2022-08-21T00:56:55;1.4;;;0.3;;
74160;SDS011;62512;-46.434;168.382;2022-08-21T00:57:54;1.7;;;0.6;;
74160;SDS011;62512;-46.434;168.382;2022-08-21T00:58:52;2.0;;;0.4;;
74160;SDS011;62512;-46.434;168.382;2022-08-21T00:59:52;2.0;;;0.6;;
74160;SDS011;62512;-46.434;168.382;2022-08-21T01:00:51;1.5;;;0.5;;
74160;SDS011;62512;-46.434;168.382;2022-08-21T01:01:51;1.3;;;0.6;;
74160;SDS011;62512;-46.434;168.382;2022-08-21T01:02:51;1.4;;;0.5;;
74160;SDS011;62512;-46.434;168.382;2022-08-21T01:03:51;3.1;;;0.7;;
74160;SDS011;62512;-46.434;168.382;2022-08-21T01:04:51;1.8;;;0.9;;
74160;SDS011;62512;-46.434;168.382;2022-08-21T01:05:52;1.5;;;0.8;;
74160;SDS011;62512;-46.434;168.382;2022-08-21T01:06:50;2.1;;;0.7;;
74160;SDS011;62512;-46.434;168.382;2022-08-21T01:07:51;1.3;;;0.7;;
74160;SDS011;62512;-46.434;168.382;2022-08-21T01:08:51;1.6;;;0.4;;
74160;SDS011;62512;-46.434;168.382;2022-08-21T01:09:51;0.9;;;0.3;;
74160;SDS011;62512;-46.434;168.382;2022-08-21T01:10:52;1.7;;;0.5;;
74160;SDS011;62512;-46.434;168.382;2022-08-21T01:11:51;1.6;;;0.4;;
74160;SDS011;62512;-46.434;168.382;2022-08-21T01:12:51;1.2;;;0.4;;
74160;SDS011;62512;-46.434;168.382;2022-08-21T01:13:51;1.0;;;0.4;;
74160;SDS011;62512;-46.434;168.382;2022-08-21T01:14:51;0.9;;;0.4;;
74160;SDS011;62512;-46.434;168.382;2022-08-21T01:15:54;1.2;;;0.4;;
74160;SDS011;62512;-46.434;168.382;2022-08-21T01:16:52;2.0;;;0.5;;
74160;SDS011;62512;-46.434;168.382;2022-08-21T01:17:51;1.2;;;0.4;;
74160;SDS011;62512;-46.434;168.382;2022-08-21T01:18:51;0.5;;;0.3;;
74160;SDS011;62512;-46.434;168.382;2022-08-21T01:19:51;0.7;;;0.3;;
74160;SDS011;62512;-46.434;168.382;2022-08-21T01:21:51;1.6;;;0.4;;
74160;SDS011;62512;-46.434;168.382;2022-08-21T01:23:53;2.5;;;0.8;;
74160;SDS011;62512;-46.434;168.382;2022-08-21T01:24:50;2.7;;;1.2;;
74160;SDS011;62512;-46.434;168.382;2022-08-21T01:25:50;2.6;;;1.2;;
74160;SDS011;62512;-46.434;168.382;2022-08-21T01:26:51;2.8;;;1.4;;
74160;SDS011;62512;-46.434;168.382;2022-08-21T01:27:50;1.8;;;0.8;;
74160;SDS011;62512;-46.434;168.382;2022-08-21T01:29:00;1.2;;;0.5;;
74160;SDS011;62512;-46.434;168.382;2022-08-21T01:30:52;0.7;;;0.3;;
74160;SDS011;62512;-46.434;168.382;2022-08-21T01:31:51;2.0;;;0.6;;
74160;SDS011;62512;-46.434;168.382;2022-08-21T01:32:52;2.6;;;1.0;;
74160;SDS011;62512;-46.434;168.382;2022-08-21T01:33:51;2.9;;;1.4;;
74160;SDS011;62512;-46.434;168.382;2022-08-21T01:34:52;4.4;;;1.5;;
74160;SDS011;62512;-46.434;168.382;2022-08-21T01:35:51;5.4;;;1.8;;
74160;SDS011;62512;-46.434;168.382;2022-08-21T01:36:51;4.5;;;1.7;;
74160;SDS011;62512;-46.434;168.382;2022-08-21T01:37:50;4.2;;;1.8;;
74160;SDS011;62512;-46.434;168.382;2022-08-21T01:38:50;4.3;;;2.0;;
74160;SDS011;62512;-46.434;168.382;2022-08-21T01:39:51;3.3;;;1.4;;
74160;SDS011;62512;-46.434;168.382;2022-08-21T01:40:50;3.8;;;1.6;;
74160;SDS011;62512;-46.434;168.382;2022-08-21T01:41:50;4.4;;;2.1;;
74160;SDS011;62512;-46.434;168.382;2022-08-21T01:42:50;5.3;;;1.9;;
74160;SDS011;62512;-46.434;168.382;2022-08-21T01:43:51;3.8;;;1.7;;
74160;SDS011;62512;-46.434;168.382;2022-08-21T01:44:51;5.1;;;1.8;;
74160;SDS011;62512;-46.434;168.382;2022-08-21T01:45:50;10.4;;;3.0;;
74160;SDS011;62512;-46.434;168.382;2022-08-21T01:46:51;4.4;;;1.5;;
74160;SDS011;62512;-46.434;168.382;2022-08-21T01:48:51;2.7;;;1.0;;
74160;SDS011;62512;-46.434;168.382;2022-08-21T01:50:51;2.2;;;0.9;;
74160;SDS011;62512;-46.434;168.382;2022-08-21T01:51:51;4.4;;;1.2;;
74160;SDS011;62512;-46.434;168.382;2022-08-21T01:52:51;2.7;;;1.6;;
74160;SDS011;62512;-46.434;168.382;2022-08-21T01:53:50;2.4;;;1.1;;
74160;SDS011;62512;-46.434;168.382;2022-08-21T01:54:51;2.7;;;1.1;;
74160;SDS011;62512;-46.434;168.382;2022-08-21T01:55:50;2.9;;;1.3;;
74160;SDS011;62512;-46.434;168.382;2022-08-21T01:56:53;2.6;;;1.0;;
74160;SDS011;62512;-46.434;168.382;2022-08-21T01:57:51;3.3;;;1.2;;
74160;SDS011;62512;-46.434;168.382;2022-08-21T01:58:50;1.6;;;0.8;;
74160;SDS011;62512;-46.434;168.382;2022-08-21T01:59:50;2.2;;;0.9;;
74160;SDS011;62512;-46.434;168.382;2022-08-21T02:00:50;1.8;;;0.8;;
74160;SDS011;62512;-46.434;168.382;2022-08-21T02:01:51;2.1;;;1.0;;
74160;SDS011;62512;-46.434;168.382;2022-08-21T02:02:51;2.1;;;1.0;;
74160;SDS011;62512;-46.434;168.382;2022-08-21T02:03:50;5.2;;;1.2;;
74160;SDS011;62512;-46.434;168.382;2022-08-21T02:04:51;2.5;;;0.7;;
74160;SDS011;62512;-46.434;168.382;2022-08-21T02:05:50;1.7;;;0.5;;
74160;SDS011;62512;-46.434;168.382;2022-08-21T02:06:51;1.7;;;0.5;;
74160;SDS011;62512;-46.434;168.382;2022-08-21T02:07:52;0.9;;;0.4;;
74160;SDS011;62512;-46.434;168.382;2022-08-21T02:08:51;3.0;;;0.5;;
74160;SDS011;62512;-46.434;168.382;2022-08-21T02:09:50;1.4;;;0.5;;
74160;SDS011;62512;-46.434;168.382;2022-08-21T02:10:52;1.9;;;0.7;;
74160;SDS011;62512;-46.434;168.382;2022-08-21T02:12:50;1.1;;;0.6;;
74160;SDS011;62512;-46.434;168.382;2022-08-21T02:13:50;1.0;;;0.4;;
74160;SDS011;62512;-46.434;168.382;2022-08-21T02:14:50;1.7;;;0.5;;
74160;SDS011;62512;-46.434;168.382;2022-08-21T02:15:51;1.4;;;0.5;;
74160;SDS011;62512;-46.434;168.382;2022-08-21T02:16:51;0.8;;;0.4;;
74160;SDS011;62512;-46.434;168.382;2022-08-21T02:17:52;2.3;;;0.5;;
74160;SDS011;62512;-46.434;168.382;2022-08-21T02:18:51;2.4;;;0.6;;
74160;SDS011;62512;-46.434;168.382;2022-08-21T02:19:50;0.7;;;0.4;;
74160;SDS011;62512;-46.434;168.382;2022-08-21T02:20:51;1.1;;;0.4;;
74160;SDS011;62512;-46.434;168.382;2022-08-21T02:21:50;1.0;;;0.6;;
74160;SDS011;62512;-46.434;168.382;2022-08-21T02:22:51;0.9;;;0.5;;
74160;SDS011;62512;-46.434;168.382;2022-08-21T02:23:51;1.3;;;0.4;;
74160;SDS011;62512;-46.434;168.382;2022-08-21T02:24:50;2.0;;;0.6;;
74160;SDS011;62512;-46.434;168.382;2022-08-21T02:25:50;1.2;;;0.7;;
74160;SDS011;62512;-46.434;168.382;2022-08-21T02:26:50;0.8;;;0.4;;
74160;SDS011;62512;-46.434;168.382;2022-08-21T02:27:51;0.8;;;0.5;;
74160;SDS011;62512;-46.434;168.382;2022-08-21T02:28:50;1.2;;;0.4;;
74160;SDS011;62512;-46.434;168.382;2022-08-21T02:29:50;0.9;;;0.3;;
74160;SDS011;62512;-46.434;168.382;2022-08-21T02:30:51;0.9;;;0.5;;
74160;SDS011;62512;-46.434;168.382;2022-08-21T02:31:50;1.3;;;1.0;;
74160;SDS011;62512;-46.434;168.382;2022-08-21T02:32:50;2.1;;;1.0;;
74160;SDS011;62512;-46.434;168.382;2022-08-21T02:33:50;1.0;;;0.7;;
74160;SDS011;62512;-46.434;168.382;2022-08-21T02:34:50;1.2;;;0.7;;
74160;SDS011;62512;-46.434;168.382;2022-08-21T02:35:51;1.1;;;0.5;;
74160;SDS011;62512;-46.434;168.382;2022-08-21T02:37:54;1.9;;;0.8;;
74160;SDS011;62512;-46.434;168.382;2022-08-21T02:38:50;2.2;;;0.5;;
74160;SDS011;62512;-46.434;168.382;2022-08-21T02:39:51;1.0;;;0.4;;
74160;SDS011;62512;-46.434;168.382;2022-08-21T02:40:52;1.0;;;0.3;;
74160;SDS011;62512;-46.434;168.382;2022-08-21T02:41:50;1.4;;;0.7;;
74160;SDS011;62512;-46.434;168.382;2022-08-21T02:42:51;1.1;;;0.5;;
74160;SDS011;62512;-46.434;168.382;2022-08-21T02:44:50;1.5;;;0.6;;
74160;SDS011;62512;-46.434;168.382;2022-08-21T02:45:51;1.6;;;0.7;;
74160;SDS011;62512;-46.434;168.382;2022-08-21T02:46:50;2.7;;;0.8;;
74160;SDS011;62512;-46.434;168.382;2022-08-21T02:47:52;1.2;;;0.7;;
74160;SDS011;62512;-46.434;168.382;2022-08-21T02:48:50;0.9;;;0.6;;
74160;SDS011;62512;-46.434;168.382;2022-08-21T02:49:52;1.3;;;0.5;;
74160;SDS011;62512;-46.434;168.382;2022-08-21T02:50:55;1.3;;;0.6;;
74160;SDS011;62512;-46.434;168.382;2022-08-21T02:51:50;1.2;;;0.4;;
74160;SDS011;62512;-46.434;168.382;2022-08-21T02:52:50;2.9;;;0.7;;
74160;SDS011;62512;-46.434;168.382;2022-08-21T02:53:51;1.5;;;0.6;;
74160;SDS011;62512;-46.434;168.382;2022-08-21T02:54:50;3.4;;;1.3;;
74160;SDS011;62512;-46.434;168.382;2022-08-21T02:55:51;2.5;;;1.0;;
74160;SDS011;62512;-46.434;168.382;2022-08-21T02:56:50;1.9;;;1.0;;
74160;SDS011;62512;-46.434;168.382;2022-08-21T02:57:50;2.3;;;0.9;;
74160;SDS011;62512;-46.434;168.382;2022-08-21T02:58:52;1.9;;;0.9;;
74160;SDS011;62512;-46.434;168.382;2022-08-21T02:59:50;2.5;;;0.8;;
74160;SDS011;62512;-46.434;168.382;2022-08-21T03:00:51;1.3;;;0.9;;
74160;SDS011;62512;-46.434;168.382;2022-08-21T03:01:50;2.0;;;0.9;;
74160;SDS011;62512;-46.434;168.382;2022-08-21T03:02:51;2.6;;;0.8;;
74160;SDS011;62512;-46.434;168.382;2022-08-21T03:03:50;1.9;;;0.8;;
74160;SDS011;62512;-46.434;168.382;2022-08-21T03:04:50;1.5;;;0.7;;
74160;SDS011;62512;-46.434;168.382;2022-08-21T03:05:51;1.8;;;0.7;;
74160;SDS011;62512;-46.434;168.382;2022-08-21T03:06:50;2.6;;;0.7;;
74160;SDS011;62512;-46.434;168.382;2022-08-21T03:07:51;1.1;;;0.8;;
74160;SDS011;62512;-46.434;168.382;2022-08-21T03:08:50;1.2;;;0.6;;
74160;SDS011;62512;-46.434;168.382;2022-08-21T03:09:50;2.5;;;0.9;;
74160;SDS011;62512;-46.434;168.382;2022-08-21T03:10:52;2.2;;;0.9;;
74160;SDS011;62512;-46.434;168.382;2022-08-21T03:11:50;2.7;;;1.2;;
74160;SDS011;62512;-46.434;168.382;2022-08-21T03:12:51;2.7;;;1.1;;
74160;SDS011;62512;-46.434;168.382;2022-08-21T03:13:50;2.6;;;1.0;;
74160;SDS011;62512;-46.434;168.382;2022-08-21T03:14:50;1.5;;;0.8;;
74160;SDS011;62512;-46.434;168.382;2022-08-21T03:15:50;1.8;;;0.9;;
74160;SDS011;62512;-46.434;168.382;2022-08-21T03:17:51;2.1;;;0.8;;
74160;SDS011;62512;-46.434;168.382;2022-08-21T03:18:50;1.6;;;0.9;;
74160;SDS011;62512;-46.434;168.382;2022-08-21T03:19:50;1.7;;;0.8;;
74160;SDS011;62512;-46.434;168.382;2022-08-21T03:20:51;2.1;;;0.9;;
74160;SDS011;62512;-46.434;168.382;2022-08-21T03:21:50;2.8;;;0.8;;
74160;SDS011;62512;-46.434;168.382;2022-08-21T03:22:51;3.8;;;1.1;;
74160;SDS011;62512;-46.434;168.382;2022-08-21T03:23:50;1.3;;;0.9;;
74160;SDS011;62512;-46.434;168.382;2022-08-21T03:24:50;2.3;;;0.7;;
74160;SDS011;62512;-46.434;168.382;2022-08-21T03:25:51;2.3;;;0.9;;
74160;SDS011;62512;-46.434;168.382;2022-08-21T03:26:50;1.1;;;0.6;;
74160;SDS011;62512;-46.434;168.382;2022-08-21T03:27:50;1.7;;;0.7;;
74160;SDS011;62512;-46.434;168.382;2022-08-21T03:28:50;1.6;;;0.9;;
74160;SDS011;62512;-46.434;168.382;2022-08-21T03:29:50;1.7;;;0.7;;
74160;SDS011;62512;-46.434;168.382;2022-08-21T03:30:51;1.8;;;0.5;;
74160;SDS011;62512;-46.434;168.382;2022-08-21T03:31:50;1.7;;;0.6;;
74160;SDS011;62512;-46.434;168.382;2022-08-21T03:32:51;2.1;;;0.7;;
74160;SDS011;62512;-46.434;168.382;2022-08-21T03:34:50;1.8;;;0.7;;
74160;SDS011;62512;-46.434;168.382;2022-08-21T03:35:58;2.1;;;0.7;;
74160;SDS011;62512;-46.434;168.382;2022-08-21T03:36:50;2.7;;;0.7;;
74160;SDS011;62512;-46.434;168.382;2022-08-21T03:37:50;1.5;;;0.6;;
74160;SDS011;62512;-46.434;168.382;2022-08-21T03:38:50;2.6;;;0.7;;
74160;SDS011;62512;-46.434;168.382;2022-08-21T03:39:50;1.8;;;0.6;;
74160;SDS011;62512;-46.434;168.382;2022-08-21T03:40:50;2.0;;;0.6;;
74160;SDS011;62512;-46.434;168.382;2022-08-21T03:41:50;1.8;;;0.7;;
74160;SDS011;62512;-46.434;168.382;2022-08-21T03:43:50;1.9;;;1.0;;
74160;SDS011;62512;-46.434;168.382;2022-08-21T03:45:51;2.2;;;0.8;;
74160;SDS011;62512;-46.434;168.382;2022-08-21T03:46:50;1.8;;;0.9;;
74160;SDS011;62512;-46.434;168.382;2022-08-21T03:47:55;1.6;;;0.6;;
74160;SDS011;62512;-46.434;168.382;2022-08-21T03:49:50;1.5;;;0.6;;
74160;SDS011;62512;-46.434;168.382;2022-08-21T03:50:52;1.2;;;0.6;;
74160;SDS011;62512;-46.434;168.382;2022-08-21T03:51:50;2.1;;;0.7;;
74160;SDS011;62512;-46.434;168.382;2022-08-21T03:52:50;1.5;;;0.6;;
74160;SDS011;62512;-46.434;168.382;2022-08-21T03:53:50;1.3;;;0.7;;
74160;SDS011;62512;-46.434;168.382;2022-08-21T03:54:50;1.1;;;0.5;;
74160;SDS011;62512;-46.434;168.382;2022-08-21T03:55:51;1.0;;;0.7;;
74160;SDS011;62512;-46.434;168.382;2022-08-21T03:56:50;1.4;;;0.6;;
74160;SDS011;62512;-46.434;168.382;2022-08-21T03:57:51;3.9;;;0.7;;
74160;SDS011;62512;-46.434;168.382;2022-08-21T03:58:50;1.6;;;0.5;;
74160;SDS011;62512;-46.434;168.382;2022-08-21T03:59:50;2.3;;;0.5;;
74160;SDS011;62512;-46.434;168.382;2022-08-21T04:00:53;2.2;;;0.7;;
74160;SDS011;62512;-46.434;168.382;2022-08-21T04:01:55;2.4;;;0.7;;
74160;SDS011;62512;-46.434;168.382;2022-08-21T04:02:51;2.0;;;0.9;;
74160;SDS011;62512;-46.434;168.382;2022-08-21T04:03:50;2.0;;;0.6;;
74160;SDS011;62512;-46.434;168.382;2022-08-21T04:04:50;3.2;;;0.7;;
74160;SDS011;62512;-46.434;168.382;2022-08-21T04:05:51;1.7;;;0.7;;
74160;SDS011;62512;-46.434;168.382;2022-08-21T04:06:50;0.7;;;0.5;;
74160;SDS011;62512;-46.434;168.382;2022-08-21T04:07:51;2.4;;;0.5;;
74160;SDS011;62512;-46.434;168.382;2022-08-21T04:08:50;2.5;;;0.8;;
74160;SDS011;62512;-46.434;168.382;2022-08-21T04:09:50;3.4;;;0.7;;
74160;SDS011;62512;-46.434;168.382;2022-08-21T04:10:53;1.8;;;0.4;;
74160;SDS011;62512;-46.434;168.382;2022-08-21T04:11:50;1.3;;;0.5;;
74160;SDS011;62512;-46.434;168.382;2022-08-21T04:12:51;1.3;;;0.5;;
74160;SDS011;62512;-46.434;168.382;2022-08-21T04:14:50;1.4;;;0.7;;
74160;SDS011;62512;-46.434;168.382;2022-08-21T04:15:50;1.4;;;0.6;;
74160;SDS011;62512;-46.434;168.382;2022-08-21T04:16:50;2.4;;;0.7;;
74160;SDS011;62512;-46.434;168.382;2022-08-21T04:17:51;1.8;;;0.5;;
74160;SDS011;62512;-46.434;168.382;2022-08-21T04:18:50;1.9;;;0.6;;
74160;SDS011;62512;-46.434;168.382;2022-08-21T04:19:50;2.4;;;0.8;;
74160;SDS011;62512;-46.434;168.382;2022-08-21T04:20:52;2.6;;;1.0;;
74160;SDS011;62512;-46.434;168.382;2022-08-21T04:21:50;2.1;;;0.9;;
74160;SDS011;62512;-46.434;168.382;2022-08-21T04:22:51;1.4;;;0.6;;
74160;SDS011;62512;-46.434;168.382;2022-08-21T04:23:50;1.9;;;0.7;;
74160;SDS011;62512;-46.434;168.382;2022-08-21T04:24:50;1.9;;;0.7;;
74160;SDS011;62512;-46.434;168.382;2022-08-21T04:25:51;1.7;;;0.8;;
74160;SDS011;62512;-46.434;168.382;2022-08-21T04:26:50;1.7;;;0.8;;
74160;SDS011;62512;-46.434;168.382;2022-08-21T04:27:51;2.6;;;1.0;;
74160;SDS011;62512;-46.434;168.382;2022-08-21T04:28:50;0.7;;;0.7;;
74160;SDS011;62512;-46.434;168.382;2022-08-21T04:29:50;2.0;;;0.8;;
74160;SDS011;62512;-46.434;168.382;2022-08-21T04:30:51;3.4;;;1.5;;
74160;SDS011;62512;-46.434;168.382;2022-08-21T04:31:50;2.6;;;1.0;;
74160;SDS011;62512;-46.434;168.382;2022-08-21T04:32:50;2.1;;;0.9;;
74160;SDS011;62512;-46.434;168.382;2022-08-21T04:33:51;3.1;;;1.1;;
74160;SDS011;62512;-46.434;168.382;2022-08-21T04:34:50;3.1;;;1.2;;
74160;SDS011;62512;-46.434;168.382;2022-08-21T04:35:50;1.9;;;0.7;;
74160;SDS011;62512;-46.434;168.382;2022-08-21T04:36:50;2.3;;;0.7;;
74160;SDS011;62512;-46.434;168.382;2022-08-21T04:37:51;4.1;;;1.0;;
74160;SDS011;62512;-46.434;168.382;2022-08-21T04:38:50;2.9;;;1.0;;
74160;SDS011;62512;-46.434;168.382;2022-08-21T04:39:50;2.5;;;1.0;;
74160;SDS011;62512;-46.434;168.382;2022-08-21T04:40:50;4.1;;;2.1;;
74160;SDS011;62512;-46.434;168.382;2022-08-21T04:41:50;3.7;;;2.1;;
74160;SDS011;62512;-46.434;168.382;2022-08-21T04:42:54;4.1;;;2.1;;
74160;SDS011;62512;-46.434;168.382;2022-08-21T04:43:51;5.1;;;2.5;;
74160;SDS011;62512;-46.434;168.382;2022-08-21T04:44:51;4.1;;;1.9;;
74160;SDS011;62512;-46.434;168.382;2022-08-21T04:45:51;3.5;;;1.1;;
74160;SDS011;62512;-46.434;168.382;2022-08-21T04:46:50;4.3;;;1.3;;
74160;SDS011;62512;-46.434;168.382;2022-08-21T04:47:52;4.1;;;1.1;;
74160;SDS011;62512;-46.434;168.382;2022-08-21T04:48:50;2.4;;;0.9;;
74160;SDS011;62512;-46.434;168.382;2022-08-21T04:49:51;2.3;;;1.1;;
74160;SDS011;62512;-46.434;168.382;2022-08-21T04:51:50;4.1;;;1.5;;
74160;SDS011;62512;-46.434;168.382;2022-08-21T04:52:50;4.1;;;1.9;;
74160;SDS011;62512;-46.434;168.382;2022-08-21T04:53:54;3.8;;;1.9;;
74160;SDS011;62512;-46.434;168.382;2022-08-21T04:54:51;5.6;;;2.5;;
74160;SDS011;62512;-46.434;168.382;2022-08-21T04:55:51;4.2;;;1.8;;
74160;SDS011;62512;-46.434;168.382;2022-08-21T04:56:55;3.5;;;1.3;;
74160;SDS011;62512;-46.434;168.382;2022-08-21T04:57:51;3.5;;;1.3;;
74160;SDS011;62512;-46.434;168.382;2022-08-21T04:58:52;2.1;;;1.0;;
74160;SDS011;62512;-46.434;168.382;2022-08-21T04:59:51;2.9;;;1.2;;
74160;SDS011;62512;-46.434;168.382;2022-08-21T05:00:55;2.3;;;1.4;;
74160;SDS011;62512;-46.434;168.382;2022-08-21T05:01:51;2.3;;;1.6;;
74160;SDS011;62512;-46.434;168.382;2022-08-21T05:02:52;6.3;;;1.2;;
74160;SDS011;62512;-46.434;168.382;2022-08-21T05:03:54;3.0;;;1.1;;
74160;SDS011;62512;-46.434;168.382;2022-08-21T05:04:53;2.4;;;1.1;;
74160;SDS011;62512;-46.434;168.382;2022-08-21T05:05:50;3.7;;;1.1;;
74160;SDS011;62512;-46.434;168.382;2022-08-21T05:06:51;3.3;;;1.2;;
74160;SDS011;62512;-46.434;168.382;2022-08-21T05:07:52;2.6;;;1.1;;
74160;SDS011;62512;-46.434;168.382;2022-08-21T05:08:53;2.6;;;1.1;;
74160;SDS011;62512;-46.434;168.382;2022-08-21T05:09:50;2.2;;;0.9;;
74160;SDS011;62512;-46.434;168.382;2022-08-21T05:10:50;3.2;;;1.2;;
74160;SDS011;62512;-46.434;168.382;2022-08-21T05:11:50;2.9;;;1.2;;
74160;SDS011;62512;-46.434;168.382;2022-08-21T05:12:50;3.7;;;1.3;;
74160;SDS011;62512;-46.434;168.382;2022-08-21T05:13:50;4.0;;;1.1;;
74160;SDS011;62512;-46.434;168.382;2022-08-21T05:14:50;4.1;;;1.5;;
74160;SDS011;62512;-46.434;168.382;2022-08-21T05:15:50;4.0;;;1.4;;
74160;SDS011;62512;-46.434;168.382;2022-08-21T05:16:50;3.6;;;1.5;;
74160;SDS011;62512;-46.434;168.382;2022-08-21T05:17:50;2.8;;;1.2;;
74160;SDS011;62512;-46.434;168.382;2022-08-21T05:18:50;4.1;;;1.3;;
74160;SDS011;62512;-46.434;168.382;2022-08-21T05:19:50;4.5;;;1.5;;
74160;SDS011;62512;-46.434;168.382;2022-08-21T05:20:50;4.7;;;1.3;;
74160;SDS011;62512;-46.434;168.382;2022-08-21T05:21:50;2.3;;;1.0;;
74160;SDS011;62512;-46.434;168.382;2022-08-21T05:22:50;5.4;;;1.6;;
74160;SDS011;62512;-46.434;168.382;2022-08-21T05:23:50;5.4;;;1.7;;
74160;SDS011;62512;-46.434;168.382;2022-08-21T05:24:51;4.3;;;1.4;;
74160;SDS011;62512;-46.434;168.382;2022-08-21T05:25:51;3.6;;;1.2;;
74160;SDS011;62512;-46.434;168.382;2022-08-21T05:26:50;3.0;;;1.1;;
74160;SDS011;62512;-46.434;168.382;2022-08-21T05:27:50;4.1;;;1.4;;
74160;SDS011;62512;-46.434;168.382;2022-08-21T05:28:50;4.3;;;1.6;;
74160;SDS011;62512;-46.434;168.382;2022-08-21T05:29:50;4.6;;;1.6;;
74160;SDS011;62512;-46.434;168.382;2022-08-21T05:30:50;6.1;;;1.9;;
74160;SDS011;62512;-46.434;168.382;2022-08-21T05:31:50;5.5;;;2.2;;
74160;SDS011;62512;-46.434;168.382;2022-08-21T05:32:56;5.0;;;2.2;;
74160;SDS011;62512;-46.434;168.382;2022-08-21T05:33:50;6.1;;;1.9;;
74160;SDS011;62512;-46.434;168.382;2022-08-21T05:34:50;5.8;;;1.9;;
74160;SDS011;62512;-46.434;168.382;2022-08-21T05:35:52;4.2;;;1.6;;
74160;SDS011;62512;-46.434;168.382;2022-08-21T05:36:50;4.8;;;1.6;;
74160;SDS011;62512;-46.434;168.382;2022-08-21T05:37:50;5.8;;;1.9;;
74160;SDS011;62512;-46.434;168.382;2022-08-21T05:38:50;4.0;;;1.6;;
74160;SDS011;62512;-46.434;168.382;2022-08-21T05:39:50;8.0;;;1.6;;
74160;SDS011;62512;-46.434;168.382;2022-08-21T05:40:50;5.5;;;1.9;;
74160;SDS011;62512;-46.434;168.382;2022-08-21T05:41:50;4.2;;;1.5;;
74160;SDS011;62512;-46.434;168.382;2022-08-21T05:42:51;4.7;;;1.7;;
74160;SDS011;62512;-46.434;168.382;2022-08-21T05:43:50;4.2;;;1.5;;
74160;SDS011;62512;-46.434;168.382;2022-08-21T05:44:50;4.9;;;1.4;;
74160;SDS011;62512;-46.434;168.382;2022-08-21T05:45:50;4.5;;;1.6;;
74160;SDS011;62512;-46.434;168.382;2022-08-21T05:46:50;4.3;;;1.4;;
74160;SDS011;62512;-46.434;168.382;2022-08-21T05:47:50;3.6;;;1.2;;
74160;SDS011;62512;-46.434;168.382;2022-08-21T05:48:50;3.4;;;1.2;;
74160;SDS011;62512;-46.434;168.382;2022-08-21T05:49:50;5.0;;;1.5;;
74160;SDS011;62512;-46.434;168.382;2022-08-21T05:50:51;3.1;;;1.6;;
74160;SDS011;62512;-46.434;168.382;2022-08-21T05:51:50;4.0;;;1.4;;
74160;SDS011;62512;-46.434;168.382;2022-08-21T05:52:50;5.0;;;1.4;;
74160;SDS011;62512;-46.434;168.382;2022-08-21T05:53:50;4.8;;;1.9;;
74160;SDS011;62512;-46.434;168.382;2022-08-21T05:56:50;5.2;;;1.9;;
74160;SDS011;62512;-46.434;168.382;2022-08-21T05:57:50;6.4;;;1.9;;
74160;SDS011;62512;-46.434;168.382;2022-08-21T05:58:50;3.6;;;1.8;;
74160;SDS011;62512;-46.434;168.382;2022-08-21T05:59:50;6.2;;;2.1;;
74160;SDS011;62512;-46.434;168.382;2022-08-21T06:00:51;4.6;;;1.5;;
74160;SDS011;62512;-46.434;168.382;2022-08-21T06:03:51;3.1;;;1.4;;
74160;SDS011;62512;-46.434;168.382;2022-08-21T06:04:50;7.2;;;1.8;;
74160;SDS011;62512;-46.434;168.382;2022-08-21T06:05:50;5.5;;;1.7;;
74160;SDS011;62512;-46.434;168.382;2022-08-21T06:06:50;3.7;;;1.5;;
74160;SDS011;62512;-46.434;168.382;2022-08-21T06:11:50;7.1;;;1.7;;
74160;SDS011;62512;-46.434;168.382;2022-08-21T06:12:53;5.9;;;1.7;;
74160;SDS011;62512;-46.434;168.382;2022-08-21T06:13:50;5.7;;;2.2;;
74160;SDS011;62512;-46.434;168.382;2022-08-21T06:14:50;5.2;;;2.6;;
74160;SDS011;62512;-46.434;168.382;2022-08-21T06:16:00;5.7;;;2.4;;
74160;SDS011;62512;-46.434;168.382;2022-08-21T06:19:52;6.5;;;3.1;;
74160;SDS011;62512;-46.434;168.382;2022-08-21T06:21:50;5.3;;;2.6;;
74160;SDS011;62512;-46.434;168.382;2022-08-21T06:22:50;7.1;;;2.1;;
74160;SDS011;62512;-46.434;168.382;2022-08-21T06:26:51;4.4;;;2.3;;
74160;SDS011;62512;-46.434;168.382;2022-08-21T06:28:50;6.1;;;2.6;;
74160;SDS011;62512;-46.434;168.382;2022-08-21T06:29:50;7.2;;;2.8;;
74160;SDS011;62512;-46.434;168.382;2022-08-21T06:30:50;6.1;;;3.3;;
74160;SDS011;62512;-46.434;168.382;2022-08-21T06:33:51;8.2;;;4.0;;